Time;durP1;ratioP1;P1;durP2;ratioP2;P2;SDS_P1;SDS_P2;PMS_P1;PMS_P2;Temp;Humidity;BMP_temperature;BMP_pressure;BME280_temperature;BME280_humidity;BME280_pressure;Samples;Min_cycle;Max_cycle;Signal;HPM_P1;HPM_P2
2021/10/03 00:01:52;;;;;;;0.10;0.10;;;;;;;19.22;71.54;99416.59;5057509;28;20032;-89
2021/10/03 00:04:20;;;;;;;0.10;0.10;;;;;;;19.29;71.56;99398.19;5054906;28;20141;-89
2021/10/03 00:06:47;;;;;;;0.10;0.10;;;;;;;19.34;71.42;99409.41;5054727;28;20033;-89
2021/10/03 00:09:13;;;;;;;0.10;0.10;;;;;;;19.28;71.53;99409.91;5054698;28;20104;-88
2021/10/03 00:11:40;;;;;;;0.10;0.10;;;;;;;19.14;72.00;99420.88;5055991;28;20032;-88
2021/10/03 00:14:07;;;;;;;0.10;0.10;;;;;;;19.28;71.65;99417.06;5055249;28;20044;-88
2021/10/03 00:16:34;;;;;;;0.00;0.00;;;;;;;19.18;71.86;99414.28;5053114;28;20029;-89
2021/10/03 00:19:07;;;;;;;0.10;0.10;;;;;;;19.28;71.50;99415.28;5055714;28;20032;-87
2021/10/03 00:21:39;;;;;;;0.10;0.10;;;;;;;19.43;70.99;99409.63;5057931;28;20024;-87
2021/10/03 00:24:09;;;;;;;0.10;0.10;;;;;;;19.36;71.04;99406.59;5054839;28;20036;-88
2021/10/03 00:26:42;;;;;;;0.10;0.10;;;;;;;19.37;71.11;99411.84;5055345;28;20388;-88
2021/10/03 00:29:09;;;;;;;0.10;0.10;;;;;;;19.27;71.42;99408.19;5054577;28;20123;-87
2021/10/03 00:31:36;;;;;;;0.10;0.10;;;;;;;19.32;71.00;99411.34;5055116;28;20099;-87
2021/10/03 00:34:02;;;;;;;0.20;0.20;;;;;;;19.42;70.99;99410.63;5051888;28;20384;-90
2021/10/03 00:36:29;;;;;;;0.10;0.10;;;;;;;19.48;70.70;99413.66;5055156;28;20021;-87
2021/10/03 00:38:56;;;;;;;0.10;0.10;;;;;;;19.40;70.80;99419.66;5054649;28;20036;-88
2021/10/03 00:41:22;;;;;;;0.10;0.10;;;;;;;19.46;70.70;99417.47;5054670;28;20028;-88
2021/10/03 00:43:49;;;;;;;0.88;0.75;;;;;;;19.54;70.36;99415.03;5053843;28;20383;-88
2021/10/03 00:46:16;;;;;;;0.10;0.10;;;;;;;19.38;70.66;99420.78;5054722;28;20025;-87
2021/10/03 00:48:42;;;;;;;0.10;0.10;;;;;;;19.54;70.21;99405.13;5054553;28;20107;-87
2021/10/03 00:51:09;;;;;;;0.10;0.10;;;;;;;19.46;70.35;99404.88;5053956;28;20488;-87
2021/10/03 00:53:35;;;;;;;0.10;0.10;;;;;;;19.46;70.12;99406.72;5054444;28;20112;-88
2021/10/03 00:56:02;;;;;;;0.00;0.00;;;;;;;19.31;70.29;99408.81;5055379;28;20024;-87
2021/10/03 00:58:29;;;;;;;0.10;0.10;;;;;;;19.42;69.97;99421.38;5053286;28;20626;-87
2021/10/03 01:00:55;;;;;;;0.10;0.10;;;;;;;19.31;70.14;99422.22;5051104;28;20502;-88
2021/10/03 01:03:22;;;;;;;0.10;0.10;;;;;;;19.31;70.02;99420.38;5054049;28;20013;-87
2021/10/03 01:05:49;;;;;;;0.10;0.10;;;;;;;19.37;69.88;99419.06;5056344;28;20029;-88
2021/10/03 01:08:16;;;;;;;0.10;0.10;;;;;;;19.33;69.71;99426.50;5054221;28;20472;-86
2021/10/03 01:10:42;;;;;;;0.10;0.10;;;;;;;19.22;70.03;99438.06;5053929;28;20124;-87
2021/10/03 01:13:12;;;;;;;0.15;0.15;;;;;;;19.25;70.07;99434.28;5053688;28;20108;-86
2021/10/03 01:15:42;;;;;;;0.05;0.05;;;;;;;19.28;70.09;99433.19;5055261;28;20025;-89
2021/10/03 01:18:10;;;;;;;0.20;0.20;;;;;;;19.22;70.03;99430.03;5054404;28;20029;-89
2021/10/03 01:20:39;;;;;;;0.10;0.10;;;;;;;19.20;70.38;99433.81;5053379;28;20052;-89
2021/10/03 01:23:11;;;;;;;0.10;0.10;;;;;;;19.15;70.46;99439.56;5054997;28;20037;-90
2021/10/03 01:25:42;;;;;;;0.10;0.10;;;;;;;19.10;70.42;99440.88;5052867;28;20025;-89
2021/10/03 01:28:09;;;;;;;0.10;0.10;;;;;;;19.16;70.48;99435.03;5053793;28;20443;-89
2021/10/03 01:30:39;;;;;;;0.10;0.10;;;;;;;19.18;70.42;99435.78;5053644;28;20028;-88
2021/10/03 01:33:06;;;;;;;0.20;0.20;;;;;;;19.16;70.45;99440.41;5053535;28;20095;-89
2021/10/03 01:35:33;;;;;;;0.10;0.10;;;;;;;19.09;70.73;99431.97;5054195;28;20091;-89
2021/10/03 01:38:07;;;;;;;0.10;0.10;;;;;;;19.10;70.72;99438.19;5054724;28;20546;-89
2021/10/03 01:40:51;;;;;;;0.10;0.10;;;;;;;18.99;71.09;99450.63;5051365;28;20494;-89
2021/10/03 01:43:28;;;;;;;0.10;0.10;;;;;;;19.11;70.59;99446.13;5053943;28;20103;-89
2021/10/03 01:45:57;;;;;;;0.20;0.20;;;;;;;19.03;70.77;99441.34;5053096;28;20039;-89
2021/10/03 01:48:25;;;;;;;0.10;0.10;;;;;;;19.05;70.69;99439.41;5054026;28;20600;-88
2021/10/03 01:50:54;;;;;;;0.10;0.10;;;;;;;19.06;70.76;99442.94;5053587;28;20395;-89
2021/10/03 01:53:24;;;;;;;0.08;0.08;;;;;;;18.84;70.79;99452.63;5053301;28;20029;-89
2021/10/03 01:55:59;;;;;;;0.10;0.10;;;;;;;18.54;69.84;99467.41;5055398;28;20467;-89
2021/10/03 01:58:32;;;;;;;0.10;0.10;;;;;;;18.47;68.00;99476.88;5053646;28;20372;-90
2021/10/03 02:01:12;;;;;;;0.20;0.20;;;;;;;18.37;67.42;99463.31;5050735;28;20029;-91
2021/10/03 02:03:39;;;;;;;0.00;0.00;;;;;;;18.28;68.09;99472.06;5052914;28;20212;-89
2021/10/03 02:06:49;;;;;;;0.10;0.10;;;;;;;18.10;69.05;99482.28;5053805;28;20124;-91
2021/10/03 02:09:21;;;;;;;0.10;0.10;;;;;;;18.03;69.18;99471.19;5052621;28;20040;-89
2021/10/03 02:12:12;;;;;;;0.10;0.10;;;;;;;17.99;69.44;99471.50;5054877;28;20572;-89
2021/10/03 02:14:42;;;;;;;0.10;0.10;;;;;;;17.98;69.47;99478.69;5048763;28;20036;-89
2021/10/03 02:17:09;;;;;;;0.10;0.10;;;;;;;17.92;69.63;99479.97;5053216;28;20028;-89
2021/10/03 02:19:40;;;;;;;0.10;0.10;;;;;;;17.93;69.89;99464.72;5053830;28;20140;-89
2021/10/03 02:22:09;;;;;;;0.10;0.10;;;;;;;17.87;69.94;99486.59;5053957;28;20540;-88
2021/10/03 02:24:36;;;;;;;1.20;1.17;;;;;;;17.76;70.12;99490.91;5050890;28;20037;-87
2021/10/03 02:27:03;;;;;;;0.10;0.10;;;;;;;17.63;70.64;99490.94;5053411;28;20028;-87
2021/10/03 02:29:29;;;;;;;3.03;1.35;;;;;;;17.60;70.53;99482.28;5054274;28;20056;-89
2021/10/03 02:33:36;;;;;;;0.10;0.10;;;;;;;17.65;70.00;99472.09;5050544;28;20033;-90
2021/10/03 02:34:55;;;;;;;0.10;0.10;;;;;;;17.62;69.92;99461.59;5004980;28;20071;-89
2021/10/03 02:37:23;;;;;;;0.10;0.10;;;;;;;17.61;70.04;99467.94;5050434;28;20100;-88
2021/10/03 02:39:50;;;;;;;0.10;0.10;;;;;;;17.59;69.90;99477.88;5055073;28;20024;-90
2021/10/03 02:42:17;;;;;;;0.08;0.08;;;;;;;17.58;70.42;99476.16;5057537;28;20032;-89
2021/10/03 02:44:46;;;;;;;0.10;0.10;;;;;;;17.57;70.07;99485.16;5057554;28;20048;-89
2021/10/03 02:47:19;;;;;;;0.10;0.10;;;;;;;17.58;70.28;99482.38;5054235;28;20029;-89
2021/10/03 02:49:48;;;;;;;0.10;0.10;;;;;;;17.56;70.02;99488.81;5058397;28;20047;-89
2021/10/03 02:52:17;;;;;;;0.10;0.10;;;;;;;17.57;70.19;99488.72;5054111;28;20056;-89
2021/10/03 02:54:44;;;;;;;0.10;0.10;;;;;;;17.59;70.36;99494.78;5054837;28;20102;-90
2021/10/03 02:57:11;;;;;;;0.95;0.95;;;;;;;17.54;70.36;99501.47;5056096;28;20013;-89
2021/10/03 02:59:37;;;;;;;0.10;0.10;;;;;;;17.46;70.25;99497.50;5057266;28;20033;-89
2021/10/03 03:02:04;;;;;;;0.10;0.10;;;;;;;17.51;70.07;99497.19;5058266;28;20028;-89
2021/10/03 03:04:31;;;;;;;0.10;0.10;;;;;;;17.50;70.25;99502.66;5056351;28;20021;-89
2021/10/03 03:07:00;;;;;;;0.40;0.40;;;;;;;17.41;70.47;99501.47;5056390;28;20036;-89
2021/10/03 03:09:27;;;;;;;0.45;0.45;;;;;;;17.39;70.47;99506.91;5055576;28;20025;-89
2021/10/03 03:11:53;;;;;;;0.10;0.10;;;;;;;17.46;70.45;99504.69;5058836;28;20052;-87
2021/10/03 03:14:20;;;;;;;0.05;0.05;;;;;;;17.45;70.31;99492.25;5056455;28;20017;-88
2021/10/03 03:16:49;;;;;;;0.10;0.10;;;;;;;17.48;70.21;99492.03;5056128;28;20064;-89
2021/10/03 03:19:21;;;;;;;0.10;0.10;;;;;;;17.45;70.42;99487.75;5053373;28;20022;-88
2021/10/03 03:21:48;;;;;;;0.10;0.10;;;;;;;17.50;70.56;99490.09;5074020;28;20111;-88
2021/10/03 03:24:15;;;;;;;0.10;0.10;;;;;;;17.51;70.57;99481.09;5062276;28;20115;-88
2021/10/03 03:26:41;;;;;;;0.10;0.10;;;;;;;17.53;70.50;99481.00;5059325;28;20083;-89
2021/10/03 03:29:08;;;;;;;0.10;0.10;;;;;;;17.56;70.54;99483.47;5061666;28;20025;-89
2021/10/03 03:31:34;;;;;;;0.10;0.10;;;;;;;17.56;70.30;99486.16;5062390;28;20086;-88
2021/10/03 03:34:01;;;;;;;0.00;0.00;;;;;;;17.57;70.59;99479.81;5059482;28;20041;-89
2021/10/03 03:36:27;;;;;;;0.10;0.10;;;;;;;17.57;70.45;99485.16;5052250;28;20087;-88
2021/10/03 03:38:54;;;;;;;0.10;0.10;;;;;;;17.57;70.58;99491.38;5059295;28;20067;-90
2021/10/03 03:41:20;;;;;;;0.10;0.10;;;;;;;17.59;70.63;99501.97;5062923;28;20020;-89
2021/10/03 03:43:50;;;;;;;0.10;0.10;;;;;;;17.61;70.35;99505.41;5059773;28;20029;-90
2021/10/03 03:46:16;;;;;;;0.10;0.10;;;;;;;17.60;70.55;99496.50;5061204;28;20044;-90
2021/10/03 03:48:43;;;;;;;0.10;0.10;;;;;;;17.62;70.28;99488.38;5058564;28;20029;-89
2021/10/03 03:51:09;;;;;;;0.10;0.10;;;;;;;17.61;70.38;99482.16;5059848;28;20029;-89
2021/10/03 03:53:36;;;;;;;0.10;0.10;;;;;;;17.65;70.46;99472.09;5060128;28;20562;-90
2021/10/03 03:56:06;;;;;;;0.10;0.10;;;;;;;17.68;70.55;99465.66;5057545;28;20029;-90
2021/10/03 03:58:33;;;;;;;0.10;0.10;;;;;;;17.64;70.40;99459.66;5058297;28;20048;-89
2021/10/03 04:00:59;;;;;;;0.10;0.10;;;;;;;17.66;70.25;99460.41;5058671;28;20104;-89
2021/10/03 04:03:26;;;;;;;0.10;0.10;;;;;;;17.65;70.48;99456.00;5058534;28;20032;-89
2021/10/03 04:05:52;;;;;;;0.10;0.10;;;;;;;17.67;70.23;99464.81;5057534;28;20499;-90
2021/10/03 04:08:21;;;;;;;0.20;0.20;;;;;;;17.63;70.47;99471.31;5067455;28;20027;-89
2021/10/03 04:10:48;;;;;;;0.10;0.10;;;;;;;17.62;70.40;99477.69;5068288;28;20391;-89
2021/10/03 04:13:14;;;;;;;0.10;0.10;;;;;;;17.56;70.45;99488.81;5065705;28;20061;-89
2021/10/03 04:15:41;;;;;;;0.47;0.47;;;;;;;17.56;70.20;99488.81;5066623;28;20029;-88
2021/10/03 04:18:08;;;;;;;0.10;0.10;;;;;;;17.45;69.94;99498.44;5068556;28;20074;-89
2021/10/03 04:20:34;;;;;;;0.10;0.10;;;;;;;17.44;70.09;99501.25;5067398;28;20035;-89
2021/10/03 04:23:00;;;;;;;0.10;0.10;;;;;;;17.35;70.02;99502.75;5067789;28;20494;-90
2021/10/03 04:25:27;;;;;;;0.10;0.10;;;;;;;17.33;70.18;99512.69;5064879;28;20112;-89
2021/10/03 04:27:53;;;;;;;0.10;0.10;;;;;;;17.19;70.37;99510.13;5064077;28;20064;-88
2021/10/03 04:30:20;;;;;;;0.10;0.10;;;;;;;17.23;70.18;99515.16;5058657;28;20025;-88
2021/10/03 04:32:46;;;;;;;0.25;0.25;;;;;;;17.18;69.68;99513.78;5058486;28;20048;-88
2021/10/03 04:35:13;;;;;;;0.10;0.10;;;;;;;17.06;69.46;99518.13;5066670;28;20494;-88
2021/10/03 04:37:39;;;;;;;0.10;0.10;;;;;;;16.96;69.43;99524.13;5066153;28;20035;-89
2021/10/03 04:40:08;;;;;;;0.10;0.10;;;;;;;16.89;68.63;99533.47;5068044;28;20016;-88
2021/10/03 04:42:45;;;;;;;0.10;0.10;;;;;;;16.80;68.20;99534.13;5068269;28;20025;-87
2021/10/03 04:45:11;;;;;;;0.10;0.10;;;;;;;16.72;68.25;99531.94;5064968;28;20329;-87
2021/10/03 04:47:38;;;;;;;0.10;0.10;;;;;;;16.69;68.24;99540.16;5065381;28;20119;-87
2021/10/03 04:50:04;;;;;;;0.10;0.10;;;;;;;16.65;68.93;99536.00;5068242;28;20406;-88
2021/10/03 04:52:31;;;;;;;0.00;0.00;;;;;;;16.63;68.88;99535.22;5067689;28;20067;-88
2021/10/03 04:54:57;;;;;;;0.10;0.10;;;;;;;16.59;68.38;99529.22;5056866;28;20048;-89
2021/10/03 04:57:26;;;;;;;0.10;0.10;;;;;;;16.56;68.93;99526.75;5061279;28;20060;-89
2021/10/03 04:59:52;;;;;;;0.10;0.10;;;;;;;16.55;69.05;99534.88;5056171;28;20083;-88
2021/10/03 05:02:19;;;;;;;0.10;0.10;;;;;;;16.45;69.17;99545.34;5067269;28;20123;-88
2021/10/03 05:04:45;;;;;;;0.10;0.10;;;;;;;16.40;68.71;99545.63;5067877;28;20037;-89
2021/10/03 05:07:12;;;;;;;0.10;0.10;;;;;;;16.40;68.71;99532.25;5066059;28;20021;-89
2021/10/03 05:09:38;;;;;;;0.10;0.10;;;;;;;16.44;69.19;99555.16;5058159;28;20025;-89
2021/10/03 05:12:05;;;;;;;0.10;0.10;;;;;;;16.48;69.46;99550.47;5067618;28;20021;-88
2021/10/03 05:14:31;;;;;;;0.10;0.10;;;;;;;16.46;69.25;99552.38;5063183;28;20364;-88
2021/10/03 05:16:57;;;;;;;0.10;0.10;;;;;;;16.46;69.55;99552.38;5060673;28;20025;-88
2021/10/03 05:19:24;;;;;;;0.10;0.10;;;;;;;16.46;69.29;99550.56;5061154;28;20036;-90
2021/10/03 05:21:50;;;;;;;0.10;0.10;;;;;;;16.44;69.81;99544.47;5058212;28;20029;-88
2021/10/03 05:24:17;;;;;;;0.10;0.10;;;;;;;16.46;69.69;99526.50;5057852;28;20403;-89
2021/10/03 05:26:44;;;;;;;0.10;0.10;;;;;;;16.48;69.87;99545.97;5057526;28;20033;-88
2021/10/03 05:29:10;;;;;;;0.10;0.10;;;;;;;16.49;70.21;99542.34;5060123;28;20025;-89
2021/10/03 05:31:36;;;;;;;0.10;0.10;;;;;;;16.48;70.19;99540.63;5059450;28;20028;-88
2021/10/03 05:34:03;;;;;;;0.10;0.10;;;;;;;16.47;69.91;99543.41;5057017;28;20044;-90
2021/10/03 05:36:29;;;;;;;0.10;0.10;;;;;;;16.49;70.11;99550.34;5057983;28;20029;-89
2021/10/03 05:38:59;;;;;;;0.10;0.10;;;;;;;16.49;70.26;99558.38;5057351;28;20055;-88
2021/10/03 05:41:26;;;;;;;0.10;0.10;;;;;;;16.50;70.15;99557.41;5060872;28;20521;-87
2021/10/03 05:43:53;;;;;;;0.10;0.10;;;;;;;16.46;70.28;99555.91;5057809;28;20428;-87
2021/10/03 05:46:19;;;;;;;0.10;0.10;;;;;;;16.50;69.91;99552.06;5057281;28;20460;-88
2021/10/03 05:48:46;;;;;;;0.10;0.10;;;;;;;16.52;70.47;99556.47;5058050;28;20036;-87
2021/10/03 05:51:12;;;;;;;0.10;0.10;;;;;;;16.55;70.18;99556.25;5059795;28;20058;-86
2021/10/03 05:53:39;;;;;;;0.10;0.10;;;;;;;16.55;70.14;99569.63;5059145;28;20032;-87
2021/10/03 05:56:05;;;;;;;0.10;0.10;;;;;;;16.55;70.55;99566.94;5057537;28;20029;-88
2021/10/03 05:58:35;;;;;;;0.10;0.10;;;;;;;16.58;70.41;99548.88;5057364;28;20065;-88
2021/10/03 06:01:02;;;;;;;0.10;0.10;;;;;;;16.54;70.15;99565.25;5065184;28;20029;-89
2021/10/03 06:03:28;;;;;;;0.10;0.10;;;;;;;16.53;69.99;99575.09;5064091;28;20029;-89
2021/10/03 06:05:55;;;;;;;0.00;0.00;;;;;;;16.55;69.98;99574.97;5067111;28;20025;-88
2021/10/03 06:08:21;;;;;;;0.08;0.08;;;;;;;16.55;70.15;99577.66;5062869;28;20432;-88
2021/10/03 06:10:48;;;;;;;0.10;0.10;;;;;;;16.55;70.12;99593.69;5066828;28;20028;-89
2021/10/03 06:13:14;;;;;;;0.00;0.00;;;;;;;16.55;70.37;99591.91;5061746;28;20478;-88
2021/10/03 06:15:44;;;;;;;36.25;1.13;;;;;;;16.55;70.52;99607.06;5060836;28;20028;-88
2021/10/03 06:18:12;;;;;;;0.10;0.10;;;;;;;16.55;70.38;99609.72;5060425;28;20020;-89
2021/10/03 06:20:38;;;;;;;0.10;0.10;;;;;;;16.49;70.41;99611.00;5060730;28;20017;-89
2021/10/03 06:23:05;;;;;;;0.10;0.10;;;;;;;16.51;70.09;99614.44;5062155;28;20546;-89
2021/10/03 06:25:31;;;;;;;0.10;0.10;;;;;;;16.48;70.05;99614.63;5063370;28;20017;-88
2021/10/03 06:27:58;;;;;;;0.20;0.20;;;;;;;16.45;69.87;99610.34;5066734;28;20089;-90
2021/10/03 06:30:24;;;;;;;0.10;0.10;;;;;;;16.46;69.98;99619.19;5060222;28;20029;-87
2021/10/03 06:32:51;;;;;;;0.10;0.10;;;;;;;16.42;69.83;99615.03;5060305;28;20021;-88
2021/10/03 06:35:18;;;;;;;0.57;0.57;;;;;;;16.39;70.17;99617.91;5063383;28;20092;-89
2021/10/03 06:37:44;;;;;;;0.10;0.10;;;;;;;16.37;69.61;99623.31;5061754;28;20024;-87
2021/10/03 06:40:11;;;;;;;0.10;0.10;;;;;;;16.38;69.92;99634.91;5060701;28;20025;-87
2021/10/03 06:42:37;;;;;;;0.10;0.10;;;;;;;16.31;70.16;99639.75;5060232;28;20047;-87
2021/10/03 06:45:06;;;;;;;0.10;0.10;;;;;;;16.38;70.03;99638.41;5068206;28;20029;-88
2021/10/03 06:47:32;;;;;;;0.10;0.10;;;;;;;16.31;69.90;99634.41;5067261;28;20021;-88
2021/10/03 06:49:59;;;;;;;0.10;0.10;;;;;;;16.32;70.20;99638.81;5067177;28;20063;-88
2021/10/03 06:52:25;;;;;;;0.10;0.10;;;;;;;16.24;70.09;99643.78;5059884;28;20041;-89
2021/10/03 06:54:54;;;;;;;0.10;0.10;;;;;;;16.20;69.83;99647.59;5059732;28;20044;-88
2021/10/03 06:57:21;;;;;;;0.10;0.10;;;;;;;16.10;69.87;99640.16;5062581;28;20036;-88
2021/10/03 06:59:47;;;;;;;0.10;0.10;;;;;;;16.09;69.26;99638.44;5069150;28;20460;-88
2021/10/03 07:02:20;;;;;;;0.10;0.10;;;;;;;16.07;69.21;99644.84;5060398;28;20021;-88
2021/10/03 07:04:46;;;;;;;0.10;0.10;;;;;;;16.02;68.97;99639.78;5062043;28;20028;-88
2021/10/03 07:07:13;;;;;;;0.10;0.10;;;;;;;16.04;69.27;99648.56;5059415;28;20040;-88
2021/10/03 07:09:39;;;;;;;0.00;0.00;;;;;;;16.05;69.14;99639.59;5058534;28;20029;-88
2021/10/03 07:12:06;;;;;;;0.10;0.10;;;;;;;16.10;69.16;99650.84;5060582;28;20079;-87
2021/10/03 07:14:32;;;;;;;0.10;0.10;;;;;;;16.13;69.38;99647.97;5062671;28;20036;-87
2021/10/03 07:16:59;;;;;;;0.10;0.10;;;;;;;16.20;69.67;99650.25;5060166;28;20033;-88
2021/10/03 07:19:25;;;;;;;0.10;0.10;;;;;;;16.24;69.71;99649.97;5062870;28;20025;-88
2021/10/03 07:21:52;;;;;;;0.10;0.10;;;;;;;16.26;69.16;99655.22;5061325;28;20029;-88
2021/10/03 07:24:18;;;;;;;0.10;0.10;;;;;;;16.27;69.46;99663.13;5070079;28;20060;-88
2021/10/03 07:26:44;;;;;;;0.00;0.00;;;;;;;16.26;69.25;99663.25;5069264;28;20033;-88
2021/10/03 07:29:11;;;;;;;0.10;0.10;;;;;;;16.29;69.02;99663.91;5066937;28;20103;-88
2021/10/03 07:31:37;;;;;;;0.10;0.10;;;;;;;16.30;69.31;99665.63;5064644;28;20415;-88
2021/10/03 07:34:04;;;;;;;0.10;0.10;;;;;;;16.34;69.41;99666.31;5063190;28;20383;-88
2021/10/03 07:36:30;;;;;;;0.10;0.10;;;;;;;16.38;69.48;99673.16;5064443;28;20032;-88
2021/10/03 07:38:57;;;;;;;0.10;0.10;;;;;;;16.40;69.37;99673.94;5059016;28;20399;-88
2021/10/03 07:41:23;;;;;;;0.10;0.10;;;;;;;16.43;69.37;99678.22;5063096;28;20086;-88
2021/10/03 07:43:50;;;;;;;0.10;0.10;;;;;;;16.44;69.48;99670.09;5062962;28;20032;-89
2021/10/03 07:46:17;;;;;;;0.10;0.10;;;;;;;16.46;69.16;99667.31;5056226;28;20343;-89
2021/10/03 07:48:45;;;;;;;0.82;0.82;;;;;;;16.48;69.32;99663.59;5055246;28;20032;-85
2021/10/03 07:51:12;;;;;;;0.10;0.10;;;;;;;16.46;68.79;99665.53;5053619;28;20056;-89
2021/10/03 07:53:39;;;;;;;0.10;0.10;;;;;;;16.49;69.29;99668.00;5053475;28;20124;-89
2021/10/03 07:56:06;;;;;;;0.10;0.10;;;;;;;16.52;69.34;99672.28;5055670;28;20032;-88
2021/10/03 07:58:32;;;;;;;0.10;0.10;;;;;;;16.55;69.30;99673.91;5057671;28;20044;-89
2021/10/03 08:00:59;;;;;;;0.10;0.10;;;;;;;16.57;69.34;99677.34;5053892;28;20052;-88
2021/10/03 08:03:26;;;;;;;2.65;1.33;;;;;;;16.56;69.22;99676.50;5051843;28;20029;-90
2021/10/03 08:05:52;;;;;;;0.80;0.80;;;;;;;16.57;69.43;99688.88;5053395;28;20036;-91
2021/10/03 08:08:18;;;;;;;0.10;0.10;;;;;;;16.61;69.25;99685.09;5053849;28;20025;-91
2021/10/03 08:10:45;;;;;;;0.10;0.10;;;;;;;16.62;69.60;99680.59;5061109;28;20075;-91
2021/10/03 08:13:16;;;;;;;0.20;0.20;;;;;;;16.66;69.40;99679.44;5062748;28;20383;-92
2021/10/03 08:15:42;;;;;;;0.10;0.10;;;;;;;16.68;69.18;99669.50;5063784;28;20032;-89
2021/10/03 08:18:11;;;;;;;0.47;0.47;;;;;;;16.72;68.96;99667.47;5063174;28;20107;-90
2021/10/03 08:20:39;;;;;;;0.10;0.10;;;;;;;16.73;69.02;99662.03;5063397;28;20033;-92
2021/10/03 08:23:09;;;;;;;0.10;0.10;;;;;;;16.81;69.34;99669.59;5053690;28;20079;-92
2021/10/03 08:25:36;;;;;;;0.10;0.10;;;;;;;16.82;69.37;99685.53;5054533;28;20538;-89
2021/10/03 08:28:03;;;;;;;0.10;0.10;;;;;;;16.84;69.44;99685.41;5055289;28;20029;-88
2021/10/03 08:30:30;;;;;;;0.10;0.10;;;;;;;16.89;69.43;99687.81;5066731;28;20459;-90
2021/10/03 08:32:56;;;;;;;0.10;0.10;;;;;;;16.88;69.11;99689.59;5066029;28;20029;-88
2021/10/03 08:35:22;;;;;;;0.10;0.10;;;;;;;16.90;68.97;99701.06;5065816;28;20110;-91
2021/10/03 08:37:48;;;;;;;0.10;0.10;;;;;;;16.88;68.56;99704.81;5069762;28;20115;-89
2021/10/03 08:40:19;;;;;;;0.10;0.10;;;;;;;16.92;68.28;99695.66;5056248;28;20139;-91
2021/10/03 08:42:46;;;;;;;0.10;0.10;;;;;;;16.89;68.25;99693.16;5072239;28;20059;-92
2021/10/03 08:45:12;;;;;;;0.10;0.10;;;;;;;16.91;68.16;99691.22;5068814;28;20024;-91
2021/10/03 08:47:41;;;;;;;0.10;0.10;;;;;;;16.93;68.33;99700.88;5057510;28;20021;-87
2021/10/03 08:50:11;;;;;;;0.10;0.10;;;;;;;16.96;68.67;99698.03;5054788;28;20508;-88
2021/10/03 08:52:42;;;;;;;0.10;0.10;;;;;;;16.98;68.60;99693.44;5053902;28;20426;-89
2021/10/03 08:55:10;;;;;;;0.10;0.10;;;;;;;17.00;68.32;99690.66;5044665;28;20107;-90
2021/10/03 08:57:39;;;;;;;0.10;0.10;;;;;;;17.01;68.66;99692.38;5052732;28;20148;-90
2021/10/03 09:00:24;;;;;;;0.10;0.10;;;;;;;17.09;67.93;99690.06;5055291;28;20036;-88
2021/10/03 09:03:08;;;;;;;0.10;0.10;;;;;;;17.03;68.28;99687.78;5052787;28;20064;-88
2021/10/03 09:05:37;;;;;;;0.10;0.10;;;;;;;17.04;68.06;99689.50;5050703;28;20028;-90
2021/10/03 09:11:04;;;;;;;0.10;0.10;;;;;;;17.17;67.93;99712.78;5077346;27;20422;-91
2021/10/03 09:18:56;;;;;;;0.10;0.10;;;;;;;17.13;67.52;99718.34;5071483;27;20901;-91
2021/10/03 09:27:03;;;;;;;0.10;0.10;;;;;;;17.17;67.98;99732.41;5130985;27;20386;-90
2021/10/03 09:29:33;;;;;;;0.10;0.10;;;;;;;17.13;68.11;99726.38;5129461;28;20023;-91
2021/10/03 09:34:49;;;;;;;0.10;0.10;;;;;;;17.19;68.53;99726.94;5082411;27;20413;-89
2021/10/03 09:40:09;;;;;;;0.30;0.30;;;;;;;17.13;67.99;99733.53;5062419;27;20747;-88
2021/10/03 09:42:36;;;;;;;0.10;0.10;;;;;;;17.14;68.20;99733.41;5019441;28;20027;-84
2021/10/03 09:45:22;;;;;;;0.10;0.10;;;;;;;17.25;68.33;99729.22;5027016;28;20498;-89
2021/10/03 09:48:09;;;;;;;0.55;0.55;;;;;;;17.28;68.35;99727.19;5029468;28;20042;-89
2021/10/03 09:50:40;;;;;;;0.38;0.38;;;;;;;17.28;68.77;99727.19;5039741;28;20039;-89
2021/10/03 09:53:06;;;;;;;0.73;0.73;;;;;;;17.27;68.60;99741.53;5026531;28;20025;-88
2021/10/03 09:55:33;;;;;;;0.10;0.10;;;;;;;17.29;68.42;99733.38;5040886;28;20021;-88
2021/10/03 09:57:59;;;;;;;0.10;0.10;;;;;;;17.32;68.25;99738.56;5027669;28;20038;-82
2021/10/03 10:00:28;;;;;;;0.00;0.00;;;;;;;17.33;68.24;99748.28;5018703;28;20021;-89
2021/10/03 10:02:55;;;;;;;0.10;0.10;;;;;;;17.32;68.20;99740.34;5018665;28;20469;-88
2021/10/03 10:05:24;;;;;;;0.10;0.10;;;;;;;17.31;68.39;99742.19;5024882;28;20023;-87
2021/10/03 10:07:53;;;;;;;0.25;0.25;;;;;;;17.26;68.43;99741.63;5033090;28;20119;-89
2021/10/03 10:10:20;;;;;;;0.10;0.10;;;;;;;17.22;68.13;99729.41;5016497;28;20028;-88
2021/10/03 10:12:54;;;;;;;0.10;0.10;;;;;;;17.19;68.10;99732.28;5040078;28;20028;-87
2021/10/03 10:15:23;;;;;;;0.10;0.10;;;;;;;17.16;68.32;99732.47;5036768;28;20020;-87
2021/10/03 10:17:51;;;;;;;0.08;0.08;;;;;;;17.09;68.34;99743.56;5009621;28;20049;-88
2021/10/03 10:23:01;;;;;;;0.20;0.20;;;;;;;17.03;69.08;99754.69;5059380;27;20418;-88
2021/10/03 10:25:52;;;;;;;0.10;0.10;;;;;;;17.08;68.30;99747.19;5056935;28;20384;-89
2021/10/03 10:31:33;;;;;;;0.10;0.10;;;;;;;16.95;68.63;99751.66;5098163;27;20393;-88
2021/10/03 10:34:04;;;;;;;0.10;0.10;;;;;;;16.91;68.04;99782.19;5063968;28;20541;-87
2021/10/03 10:36:52;;;;;;;0.10;0.10;;;;;;;16.87;68.25;99796.72;5065173;28;20041;-89
2021/10/03 10:39:20;;;;;;;0.10;0.10;;;;;;;16.81;67.64;99792.63;5061798;28;20029;-80
2021/10/03 10:41:51;;;;;;;0.10;0.10;;;;;;;16.79;68.09;99775.81;5063272;28;20029;-82
2021/10/03 10:47:21;;;;;;;0.10;0.10;;;;;;;16.74;67.83;99792.13;5083488;27;20411;-81
2021/10/03 10:52:38;;;;;;;0.10;0.10;;;;;;;16.74;68.16;99808.19;5024812;27;1272763;-92
2021/10/03 11:00:31;;;;;;;1.00;1.00;;;;;;;16.76;68.48;99816.09;5076794;27;20784;-94
2021/10/03 11:03:01;;;;;;;0.10;0.10;;;;;;;16.79;68.37;99823.97;5065587;28;20110;-93
2021/10/03 11:08:22;;;;;;;0.10;0.10;;;;;;;16.77;67.65;99817.84;5116254;27;20407;-95
2021/10/03 11:13:51;;;;;;;0.10;0.10;;;;;;;16.73;67.50;99854.59;5058666;28;20842;-92
2021/10/03 11:16:42;;;;;;;0.10;0.10;;;;;;;16.80;67.50;99847.94;5049452;28;20041;-96
2021/10/03 11:19:14;;;;;;;2.35;0.75;;;;;;;16.69;67.29;99847.72;5042854;28;20447;-88
2021/10/03 11:21:48;;;;;;;2.90;0.75;;;;;;;16.58;67.46;99850.22;5036944;28;20369;-93
2021/10/03 11:27:13;;;;;;;0.10;0.10;;;;;;;16.37;67.90;99874.59;5154641;27;20755;-94
2021/10/03 11:29:43;;;;;;;0.10;0.10;;;;;;;16.25;68.46;99860.16;5145420;27;20028;-95
2021/10/03 11:32:13;;;;;;;0.10;0.10;;;;;;;16.12;67.74;99862.69;5135105;27;20073;-96
2021/10/03 11:40:22;;;;;;;0.10;0.10;;;;;;;15.87;68.58;99892.66;5085700;27;20182;-85
2021/10/03 11:42:51;;;;;;;0.10;0.10;;;;;;;15.83;68.92;99885.78;5058291;28;20041;-95
2021/10/03 11:45:28;;;;;;;0.95;0.95;;;;;;;15.82;68.82;99889.38;5042739;28;20021;-92
2021/10/03 11:47:57;;;;;;;0.10;0.10;;;;;;;15.79;69.25;99885.06;5040945;28;20041;-94
2021/10/03 11:53:21;;;;;;;0.10;0.10;;;;;;;15.92;69.12;99909.28;5048330;28;20485;-94
2021/10/03 11:55:50;;;;;;;0.10;0.10;;;;;;;15.91;69.52;99917.38;5037416;28;20030;-90
2021/10/03 11:58:18;;;;;;;0.17;0.17;;;;;;;15.78;70.27;99923.38;5040825;28;20084;-90
2021/10/03 12:03:33;;;;;;;0.10;0.10;;;;;;;15.79;70.55;99965.19;5035256;28;20438;-92
2021/10/03 12:06:19;;;;;;;0.10;0.10;;;;;;;15.80;70.10;99990.94;5042579;28;20029;-94
2021/10/03 12:08:47;;;;;;;0.10;0.10;;;;;;;15.63;69.76;99996.34;5053953;28;20025;-92
2021/10/03 12:11:15;;;;;;;0.10;0.10;;;;;;;15.69;69.47;99982.66;5040027;28;20048;-91
2021/10/03 12:13:41;;;;;;;0.30;0.30;;;;;;;15.67;69.95;99976.53;5044606;28;20037;-91
2021/10/03 12:18:59;;;;;;;0.10;0.10;;;;;;;15.78;69.71;99965.28;5069884;28;20398;-93
2021/10/03 12:24:08;;;;;;;0.10;0.10;;;;;;;15.58;68.90;99983.25;5070605;28;20454;-93
2021/10/03 12:26:46;;;;;;;0.10;0.10;;;;;;;15.58;68.78;99971.72;5048051;28;20076;-87
2021/10/03 12:32:10;;;;;;;0.10;0.10;;;;;;;15.47;68.63;99990.97;5053147;28;20431;-94
2021/10/03 12:34:42;;;;;;;0.10;0.10;;;;;;;15.38;68.96;99992.34;5037907;28;20087;-82
2021/10/03 12:37:12;;;;;;;0.10;0.10;;;;;;;15.37;69.10;99995.94;5028836;28;20025;-92
2021/10/03 12:39:44;;;;;;;0.10;0.10;;;;;;;15.46;69.14;99984.75;5031374;28;20497;-92
2021/10/03 12:42:17;;;;;;;0.10;0.10;;;;;;;15.27;69.46;99984.06;5029261;28;20076;-89
2021/10/03 12:44:46;;;;;;;0.10;0.10;;;;;;;15.39;69.23;100010.09;5032598;28;20092;-91
2021/10/03 12:47:14;;;;;;;0.10;0.10;;;;;;;15.25;69.00;100028.63;5034811;28;20040;-92